Time;durP1;ratioP1;P1;durP2;ratioP2;P2;SDS_P1;SDS_P2;PMS_P1;PMS_P2;Temp;Humidity;BMP_temperature;BMP_pressure;BME280_temperature;BME280_humidity;BME280_pressure;Samples;Min_cycle;Max_cycle;Signal;HPM_P1;HPM_P2
2023/07/19 00:00:17;;;;;;;3.38;2.05;;;18.50;64.00;;;;;;5062649;28;20029;-64
2023/07/19 00:02:42;;;;;;;4.82;2.22;;;18.50;63.90;;;;;;5061503;28;20037;-64
2023/07/19 00:05:09;;;;;;;2.75;1.80;;;18.50;63.70;;;;;;5068171;28;20033;-65
2023/07/19 00:07:35;;;;;;;3.42;2.33;;;18.60;63.70;;;;;;5073211;28;20041;-64
2023/07/19 00:10:02;;;;;;;3.08;1.98;;;18.60;63.50;;;;;;5072955;28;20048;-64
2023/07/19 00:12:27;;;;;;;3.35;1.80;;;18.60;63.30;;;;;;5069201;28;20048;-64
2023/07/19 00:14:53;;;;;;;3.33;1.90;;;18.60;63.20;;;;;;5071971;28;20047;-64
2023/07/19 00:17:19;;;;;;;3.05;1.92;;;18.70;63.20;;;;;;5072730;28;20128;-64
2023/07/19 00:19:44;;;;;;;3.63;1.98;;;18.70;63.00;;;;;;5074663;28;20048;-64
2023/07/19 00:22:10;;;;;;;3.25;2.10;;;18.70;63.00;;;;;;5084561;28;20513;-64
2023/07/19 00:24:36;;;;;;;2.50;1.98;;;18.70;62.80;;;;;;5073050;28;20046;-64
2023/07/19 00:27:02;;;;;;;3.22;2.30;;;18.70;62.70;;;;;;5075625;28;21265;-64
2023/07/19 00:29:27;;;;;;;3.60;2.10;;;18.70;62.70;;;;;;5091647;28;20047;-64
2023/07/19 00:31:53;;;;;;;4.32;2.30;;;18.70;62.60;;;;;;5089284;28;20032;-64
2023/07/19 00:34:19;;;;;;;3.03;2.20;;;18.80;62.60;;;;;;5068513;28;20060;-64
2023/07/19 00:36:44;;;;;;;2.85;1.92;;;18.80;62.50;;;;;;5071915;28;20379;-65
2023/07/19 00:39:11;;;;;;;3.40;2.28;;;18.70;62.40;;;;;;5067796;28;20036;-65
2023/07/19 00:41:37;;;;;;;3.17;2.05;;;18.80;62.50;;;;;;5086347;28;20040;-65
2023/07/19 00:44:03;;;;;;;2.55;2.00;;;18.70;62.40;;;;;;5072548;28;20089;-65
2023/07/19 00:46:29;;;;;;;3.25;1.90;;;18.80;62.50;;;;;;5092768;28;20064;-64
2023/07/19 00:48:58;;;;;;;3.95;2.17;;;18.80;62.40;;;;;;5086649;28;20044;-64
2023/07/19 00:51:25;;;;;;;2.70;1.75;;;18.80;62.30;;;;;;5091912;28;20482;-64
2023/07/19 00:53:52;;;;;;;3.35;2.13;;;18.80;62.20;;;;;;5089056;28;20165;-64
2023/07/19 00:56:18;;;;;;;4.00;2.15;;;18.80;62.10;;;;;;5074893;28;20111;-64
2023/07/19 00:58:44;;;;;;;3.28;2.00;;;18.80;62.20;;;;;;5071470;28;20528;-64
2023/07/19 01:01:10;;;;;;;4.07;2.25;;;18.80;62.20;;;;;;5072058;28;20040;-64
2023/07/19 01:03:36;;;;;;;2.67;2.00;;;18.80;62.30;;;;;;5074609;28;20058;-65
2023/07/19 01:06:05;;;;;;;3.17;1.80;;;18.80;62.40;;;;;;5074300;28;20111;-65
2023/07/19 01:08:30;;;;;;;2.70;2.00;;;18.80;62.30;;;;;;5089677;28;20058;-65
2023/07/19 01:10:56;;;;;;;3.83;2.45;;;18.80;62.30;;;;;;5092447;28;20463;-65
2023/07/19 01:13:22;;;;;;;3.55;2.10;;;18.80;62.50;;;;;;5066369;28;20040;-65
2023/07/19 01:15:48;;;;;;;3.60;2.25;;;18.80;62.40;;;;;;5090493;28;20042;-65
2023/07/19 01:18:14;;;;;;;4.05;2.40;;;18.80;62.40;;;;;;5055656;28;20612;-65
2023/07/19 01:20:39;;;;;;;3.75;2.72;;;18.80;62.50;;;;;;5054199;28;20103;-65
2023/07/19 01:23:05;;;;;;;4.35;2.40;;;18.90;62.70;;;;;;5091693;28;20044;-65
2023/07/19 01:25:31;;;;;;;3.80;2.20;;;18.90;62.70;;;;;;5074127;28;20066;-65
2023/07/19 01:27:57;;;;;;;5.13;3.10;;;18.80;62.60;;;;;;5073731;28;20130;-65
2023/07/19 01:30:23;;;;;;;2.72;2.28;;;18.80;62.80;;;;;;5073370;28;20437;-65
2023/07/19 01:32:49;;;;;;;3.53;2.40;;;18.80;62.90;;;;;;5073915;28;20067;-65
2023/07/19 01:35:16;;;;;;;3.22;2.30;;;18.80;63.00;;;;;;5088674;28;20067;-65
2023/07/19 01:37:41;;;;;;;5.45;3.72;;;18.80;63.00;;;;;;5063653;28;20472;-65
2023/07/19 01:40:11;;;;;;;3.83;2.45;;;18.80;63.30;;;;;;5088912;28;20040;-65
2023/07/19 01:42:37;;;;;;;4.43;3.20;;;18.80;63.20;;;;;;5070998;28;20032;-65
2023/07/19 01:45:03;;;;;;;3.80;2.55;;;18.80;63.30;;;;;;5067544;28;20047;-65
2023/07/19 01:47:29;;;;;;;3.65;2.20;;;18.80;63.70;;;;;;5090369;28;20458;-65
2023/07/19 01:49:55;;;;;;;3.42;2.67;;;18.80;63.60;;;;;;5068322;28;20036;-65
2023/07/19 01:52:20;;;;;;;3.47;2.63;;;18.80;63.70;;;;;;5061462;28;20102;-65
2023/07/19 01:54:46;;;;;;;4.05;2.40;;;18.80;63.70;;;;;;5083237;28;20093;-65
2023/07/19 01:57:12;;;;;;;3.17;2.25;;;18.80;63.60;;;;;;5080157;28;20528;-65
2023/07/19 01:59:38;;;;;;;5.43;3.00;;;18.80;63.60;;;;;;5088842;28;20131;-68
2023/07/19 02:02:04;;;;;;;3.78;2.75;;;18.80;63.90;;;;;;5069409;28;20039;-65
2023/07/19 02:04:30;;;;;;;2.90;2.30;;;18.80;64.00;;;;;;5067063;28;20093;-65
2023/07/19 02:06:56;;;;;;;5.45;2.75;;;18.80;64.00;;;;;;5060119;28;20044;-64
2023/07/19 02:09:22;;;;;;;4.85;2.70;;;18.80;64.30;;;;;;5065812;28;20486;-65
2023/07/19 02:11:48;;;;;;;4.00;2.50;;;18.80;64.30;;;;;;5070387;28;20036;-66
2023/07/19 02:14:14;;;;;;;3.47;2.20;;;18.70;64.10;;;;;;5070845;28;20047;-65
2023/07/19 02:16:40;;;;;;;5.38;3.08;;;18.70;64.10;;;;;;5090663;28;20040;-63
2023/07/19 02:19:07;;;;;;;4.75;3.00;;;18.80;64.20;;;;;;5063911;28;20440;-63
2023/07/19 02:21:33;;;;;;;3.25;2.45;;;18.80;64.40;;;;;;5061742;28;20102;-63
2023/07/19 02:23:59;;;;;;;4.63;2.92;;;18.70;64.30;;;;;;5066860;28;20094;-63
2023/07/19 02:26:25;;;;;;;3.38;3.08;;;18.70;64.30;;;;;;5069291;28;20119;-63
2023/07/19 02:28:51;;;;;;;5.10;3.67;;;18.80;64.50;;;;;;5063642;28;20131;-63
2023/07/19 02:31:17;;;;;;;4.13;3.05;;;18.80;64.60;;;;;;5064150;28;20044;-63
2023/07/19 02:33:43;;;;;;;3.35;2.70;;;18.80;64.60;;;;;;5051348;28;20399;-63
2023/07/19 02:36:12;;;;;;;3.03;2.25;;;18.80;64.50;;;;;;5067367;28;20044;-63
2023/07/19 02:38:38;;;;;;;3.92;2.60;;;18.80;64.40;;;;;;5067238;28;20447;-63
2023/07/19 02:41:03;;;;;;;4.63;2.58;;;18.80;64.40;;;;;;5062348;28;20037;-65
2023/07/19 02:43:29;;;;;;;4.13;2.70;;;18.80;64.40;;;;;;5051916;28;20065;-65
2023/07/19 02:45:56;;;;;;;4.15;2.40;;;18.80;64.40;;;;;;5067689;28;20388;-65
2023/07/19 02:48:22;;;;;;;2.50;2.10;;;18.80;64.30;;;;;;5067627;28;20041;-65
2023/07/19 02:50:49;;;;;;;3.75;2.88;;;18.80;64.20;;;;;;5068546;28;20037;-65
2023/07/19 02:53:15;;;;;;;4.03;3.17;;;18.80;64.20;;;;;;5069551;28;20047;-65
2023/07/19 02:55:47;;;;;;;3.80;2.90;;;18.80;64.30;;;;;;5069904;28;20106;-65
2023/07/19 02:58:14;;;;;;;3.35;2.28;;;18.80;64.40;;;;;;5070001;28;20043;-65
2023/07/19 03:00:41;;;;;;;4.05;2.58;;;18.80;64.50;;;;;;5070598;28;20072;-65
2023/07/19 03:03:07;;;;;;;4.10;2.55;;;18.70;64.50;;;;;;5069979;28;20076;-65
2023/07/19 03:05:40;;;;;;;4.30;2.45;;;18.70;64.60;;;;;;5084768;28;20060;-65
2023/07/19 03:08:09;;;;;;;5.32;2.75;;;18.70;64.60;;;;;;5073514;28;20044;-65
2023/07/19 03:10:35;;;;;;;3.03;2.30;;;18.70;64.50;;;;;;5073959;28;20044;-65
2023/07/19 03:13:01;;;;;;;4.05;2.33;;;18.70;64.50;;;;;;5073609;28;20047;-65
2023/07/19 03:15:32;;;;;;;4.55;3.00;;;18.70;64.50;;;;;;5074395;28;20052;-65
2023/07/19 03:18:05;;;;;;;4.03;3.17;;;18.70;64.50;;;;;;5073947;28;20052;-65
2023/07/19 03:20:31;;;;;;;3.65;2.53;;;18.70;64.70;;;;;;5074863;28;20183;-65
2023/07/19 03:23:00;;;;;;;4.68;2.65;;;18.70;64.70;;;;;;5077226;28;20033;-65
2023/07/19 03:25:28;;;;;;;4.90;2.42;;;18.70;64.70;;;;;;5076108;28;20044;-65
2023/07/19 03:27:54;;;;;;;3.13;2.42;;;18.70;64.80;;;;;;5075265;28;20037;-65
2023/07/19 03:30:20;;;;;;;4.40;2.80;;;18.70;64.70;;;;;;5076652;28;20040;-65
2023/07/19 03:32:47;;;;;;;4.88;3.33;;;18.70;64.80;;;;;;5057177;28;20476;-65
2023/07/19 03:35:13;;;;;;;3.25;2.20;;;18.80;64.90;;;;;;5075074;28;20049;-65
2023/07/19 03:37:44;;;;;;;4.18;2.92;;;18.80;64.80;;;;;;5069831;28;20036;-65
2023/07/19 03:40:13;;;;;;;5.47;3.03;;;18.70;64.80;;;;;;5075526;28;20075;-65
2023/07/19 03:42:40;;;;;;;5.70;3.13;;;18.80;65.10;;;;;;5073715;28;20040;-65
2023/07/19 03:45:06;;;;;;;4.70;2.65;;;18.80;65.10;;;;;;5075427;28;20072;-65
2023/07/19 03:47:33;;;;;;;4.47;2.75;;;18.80;65.20;;;;;;5074619;28;20460;-65
2023/07/19 03:49:59;;;;;;;5.18;3.78;;;18.80;65.20;;;;;;5075657;28;20111;-65
2023/07/19 03:52:24;;;;;;;4.38;3.20;;;18.80;65.30;;;;;;5073861;28;20072;-65
2023/07/19 03:54:53;;;;;;;5.28;2.97;;;18.80;65.40;;;;;;5073685;28;20048;-65
2023/07/19 03:57:18;;;;;;;4.97;3.08;;;18.80;65.40;;;;;;5074568;28;20036;-65
2023/07/19 03:59:44;;;;;;;4.30;2.95;;;18.80;65.60;;;;;;5073887;28;20514;-65
2023/07/19 04:02:10;;;;;;;4.68;2.95;;;18.80;65.90;;;;;;5074387;28;20369;-65
2023/07/19 04:04:35;;;;;;;4.43;2.80;;;18.80;65.80;;;;;;5074194;28;20127;-65
2023/07/19 04:07:01;;;;;;;6.45;4.35;;;18.80;65.80;;;;;;5072604;28;20041;-65
2023/07/19 04:09:27;;;;;;;6.60;3.90;;;18.80;66.20;;;;;;5073487;28;20071;-65
2023/07/19 04:11:52;;;;;;;6.97;4.30;;;18.80;66.30;;;;;;5073963;28;20041;-66
2023/07/19 04:14:18;;;;;;;4.75;3.33;;;18.80;66.40;;;;;;5073541;28;20483;-65
2023/07/19 04:16:45;;;;;;;4.05;3.10;;;18.80;66.30;;;;;;5073936;28;20040;-65
2023/07/19 04:19:11;;;;;;;7.32;4.68;;;18.80;66.30;;;;;;5079941;28;20380;-65
2023/07/19 04:21:36;;;;;;;7.05;4.15;;;18.80;66.70;;;;;;5077434;28;20066;-65
2023/07/19 04:24:02;;;;;;;6.07;3.80;;;18.80;66.70;;;;;;5076608;28;20047;-65
2023/07/19 04:26:28;;;;;;;6.50;4.30;;;18.80;66.60;;;;;;5077395;28;20414;-65
2023/07/19 04:28:57;;;;;;;5.10;4.10;;;18.80;66.80;;;;;;5095675;28;20435;-65
2023/07/19 04:31:23;;;;;;;8.48;4.50;;;18.80;66.80;;;;;;5096039;28;20036;-64
2023/07/19 04:33:50;;;;;;;5.40;3.90;;;18.80;66.90;;;;;;5044518;28;20032;-65
2023/07/19 04:36:16;;;;;;;5.93;3.40;;;18.80;66.90;;;;;;5097144;28;20360;-65
2023/07/19 04:38:42;;;;;;;5.20;3.65;;;18.80;66.90;;;;;;5096477;28;20035;-65
2023/07/19 04:41:08;;;;;;;5.90;3.03;;;18.80;66.90;;;;;;5096484;28;20082;-65
2023/07/19 04:43:35;;;;;;;5.35;3.90;;;18.80;66.80;;;;;;5096104;28;20127;-65
2023/07/19 04:46:00;;;;;;;4.45;2.75;;;18.80;66.90;;;;;;5095756;28;20058;-65
2023/07/19 04:48:26;;;;;;;9.35;3.40;;;18.80;66.80;;;;;;5076754;28;20035;-65
2023/07/19 04:50:56;;;;;;;5.03;2.88;;;18.90;66.80;;;;;;5060395;28;20514;-65
2023/07/19 04:53:24;;;;;;;4.68;2.95;;;18.90;66.60;;;;;;5091937;28;20072;-65
2023/07/19 04:55:52;;;;;;;4.18;2.70;;;18.80;66.60;;;;;;5075518;28;20040;-64
2023/07/19 04:58:18;;;;;;;5.90;2.65;;;18.90;66.50;;;;;;5075279;28;20039;-64
2023/07/19 05:00:43;;;;;;;4.97;3.50;;;18.90;66.20;;;;;;5075159;28;20550;-64
2023/07/19 05:03:10;;;;;;;7.72;4.18;;;18.90;66.30;;;;;;5089117;28;20036;-65
2023/07/19 05:05:36;;;;;;;6.10;2.88;;;18.90;66.60;;;;;;5094580;28;20043;-64
2023/07/19 05:08:04;;;;;;;3.65;2.92;;;18.90;66.50;;;;;;5075975;28;20036;-64
2023/07/19 05:10:30;;;;;;;6.93;2.50;;;18.90;66.70;;;;;;5076170;28;20444;-64
2023/07/19 05:12:56;;;;;;;4.30;2.72;;;18.90;66.70;;;;;;5076067;28;20051;-64
2023/07/19 05:15:21;;;;;;;4.45;2.50;;;18.90;66.90;;;;;;5094251;28;20036;-64
2023/07/19 05:17:47;;;;;;;4.88;2.67;;;18.90;66.90;;;;;;5076218;28;20036;-64
2023/07/19 05:20:13;;;;;;;5.32;3.05;;;18.90;66.90;;;;;;5093796;28;20044;-64
2023/07/19 05:22:39;;;;;;;4.47;2.40;;;18.90;67.10;;;;;;5094269;28;20036;-64
2023/07/19 05:25:05;;;;;;;5.55;3.30;;;18.90;67.10;;;;;;5093741;28;20131;-64
2023/07/19 05:27:31;;;;;;;4.82;3.00;;;18.90;67.20;;;;;;5075573;28;20115;-64
2023/07/19 05:29:56;;;;;;;6.03;2.85;;;18.90;67.40;;;;;;5075729;28;20042;-64
2023/07/19 05:32:22;;;;;;;4.75;2.60;;;18.90;67.50;;;;;;5075782;28;20050;-64
2023/07/19 05:34:48;;;;;;;3.38;2.42;;;19.00;67.50;;;;;;5075941;28;20044;-64
2023/07/19 05:37:13;;;;;;;3.85;2.40;;;18.90;67.40;;;;;;5075488;28;20101;-64
2023/07/19 05:39:39;;;;;;;3.13;1.80;;;18.90;67.10;;;;;;5075197;28;20044;-64
2023/07/19 05:42:05;;;;;;;4.07;1.83;;;19.00;67.10;;;;;;5093867;28;20040;-64
2023/07/19 05:44:31;;;;;;;5.25;1.95;;;18.90;66.80;;;;;;5075458;28;20039;-64
2023/07/19 05:46:57;;;;;;;3.88;1.75;;;19.00;66.70;;;;;;5093843;28;20109;-64
2023/07/19 05:49:22;;;;;;;2.95;1.88;;;19.00;66.60;;;;;;5075433;28;20050;-64
2023/07/19 05:51:48;;;;;;;3.95;1.98;;;19.00;66.80;;;;;;5093299;28;20355;-64
2023/07/19 05:54:15;;;;;;;3.83;1.83;;;19.00;66.80;;;;;;5093707;28;20032;-64
2023/07/19 05:56:41;;;;;;;4.53;2.10;;;19.00;66.90;;;;;;5093592;28;20043;-64
2023/07/19 05:59:07;;;;;;;4.72;2.55;;;19.00;67.20;;;;;;5075335;28;20048;-64
2023/07/19 06:01:33;;;;;;;5.18;2.45;;;19.00;67.60;;;;;;5092873;28;20031;-64
2023/07/19 06:03:58;;;;;;;4.68;2.65;;;19.00;68.10;;;;;;5093082;28;20059;-64
2023/07/19 06:06:25;;;;;;;5.85;2.63;;;19.00;68.40;;;;;;5075230;28;20044;-63
2023/07/19 06:08:51;;;;;;;4.50;1.80;;;19.00;68.80;;;;;;5075458;28;20472;-64
2023/07/19 06:11:16;;;;;;;3.55;2.03;;;19.10;68.60;;;;;;5074950;28;20170;-64
2023/07/19 06:13:42;;;;;;;3.42;1.65;;;19.10;68.20;;;;;;5092926;28;20075;-64
2023/07/19 06:16:08;;;;;;;4.82;2.40;;;19.10;67.70;;;;;;5093110;28;20032;-65
2023/07/19 06:18:33;;;;;;;2.75;1.63;;;19.10;67.90;;;;;;5074898;28;20044;-64
2023/07/19 06:20:59;;;;;;;2.58;1.70;;;19.10;67.60;;;;;;5092441;28;20056;-64
2023/07/19 06:23:25;;;;;;;3.42;2.10;;;19.10;67.50;;;;;;5074902;28;20040;-64
2023/07/19 06:25:51;;;;;;;4.88;1.60;;;19.10;67.30;;;;;;5093004;28;20446;-64
2023/07/19 06:28:17;;;;;;;4.03;2.03;;;19.20;67.10;;;;;;5092660;28;20113;-64
2023/07/19 06:30:42;;;;;;;5.50;2.53;;;19.20;67.00;;;;;;5055509;28;20031;-64
2023/07/19 06:33:09;;;;;;;3.40;1.67;;;19.20;67.10;;;;;;5074075;28;20135;-65
2023/07/19 06:35:34;;;;;;;2.80;1.70;;;19.20;67.00;;;;;;5072223;28;20066;-64
2023/07/19 06:38:00;;;;;;;2.90;1.77;;;19.20;66.90;;;;;;5074225;28;20602;-62
2023/07/19 06:40:26;;;;;;;2.38;1.58;;;19.20;66.60;;;;;;5074491;28;20067;-64
2023/07/19 06:42:52;;;;;;;2.53;1.90;;;19.20;66.60;;;;;;5073938;28;20040;-64
2023/07/19 06:45:19;;;;;;;2.80;1.70;;;19.30;66.60;;;;;;5074740;28;20040;-64
2023/07/19 06:47:45;;;;;;;2.60;1.27;;;19.30;66.50;;;;;;5074565;28;20048;-64
2023/07/19 06:50:10;;;;;;;3.15;1.50;;;19.30;66.20;;;;;;5057692;28;20105;-64
2023/07/19 06:52:36;;;;;;;2.75;1.25;;;19.30;66.10;;;;;;5074584;28;20118;-64
2023/07/19 06:55:03;;;;;;;3.67;2.10;;;19.30;66.00;;;;;;5074622;28;20043;-64
2023/07/19 06:57:30;;;;;;;4.15;1.30;;;19.30;66.10;;;;;;5074232;28;20119;-64
2023/07/19 06:59:56;;;;;;;3.30;1.58;;;19.40;65.90;;;;;;5092515;28;20036;-64
2023/07/19 07:02:22;;;;;;;4.00;1.90;;;19.40;65.70;;;;;;5092504;28;20078;-64
2023/07/19 07:04:49;;;;;;;2.78;1.38;;;19.40;65.80;;;;;;5092260;28;20079;-64
2023/07/19 07:07:19;;;;;;;3.90;1.55;;;19.40;65.90;;;;;;5057762;28;20047;-64
2023/07/19 07:09:45;;;;;;;3.10;1.20;;;19.40;66.10;;;;;;5092487;28;20044;-64
2023/07/19 07:12:11;;;;;;;3.10;1.42;;;19.40;65.90;;;;;;5057828;28;20051;-64
2023/07/19 07:14:39;;;;;;;4.57;1.60;;;19.50;66.00;;;;;;5092103;28;20395;-64
2023/07/19 07:17:06;;;;;;;2.70;1.40;;;19.50;66.00;;;;;;5092259;28;20051;-64
2023/07/19 07:19:33;;;;;;;3.78;1.55;;;19.50;65.70;;;;;;5091912;28;20052;-63
2023/07/19 07:21:59;;;;;;;4.82;1.98;;;19.50;65.60;;;;;;5092294;28;20040;-63
2023/07/19 07:24:24;;;;;;;2.35;1.48;;;19.60;65.40;;;;;;5073785;28;20077;-63
2023/07/19 07:26:50;;;;;;;4.57;2.10;;;19.60;65.20;;;;;;5074152;28;20044;-64
2023/07/19 07:29:16;;;;;;;3.33;1.55;;;19.60;65.10;;;;;;5092441;28;20180;-64
2023/07/19 07:31:42;;;;;;;2.70;1.60;;;19.50;65.00;;;;;;5074182;28;20048;-64
2023/07/19 07:34:08;;;;;;;2.10;1.40;;;19.50;64.80;;;;;;5073634;28;20131;-63
2023/07/19 07:36:34;;;;;;;3.80;2.00;;;19.60;64.70;;;;;;5092313;28;20040;-64
2023/07/19 07:39:00;;;;;;;2.65;1.30;;;19.60;64.70;;;;;;5074197;28;20058;-65
2023/07/19 07:41:25;;;;;;;2.53;1.33;;;19.60;64.50;;;;;;5074123;28;20446;-64
2023/07/19 07:43:51;;;;;;;3.80;1.60;;;19.60;64.50;;;;;;5074033;28;20036;-64
2023/07/19 07:46:17;;;;;;;2.20;1.40;;;19.60;64.80;;;;;;5092305;28;20449;-64
2023/07/19 07:48:42;;;;;;;3.78;1.50;;;19.60;64.50;;;;;;5073946;28;20434;-64
2023/07/19 07:51:08;;;;;;;2.63;1.33;;;19.60;64.40;;;;;;5073963;28;20126;-65
2023/07/19 07:53:34;;;;;;;2.55;1.23;;;19.60;63.80;;;;;;5091957;28;20336;-65
2023/07/19 07:56:00;;;;;;;3.30;1.58;;;19.60;63.70;;;;;;5076929;28;20540;-64
2023/07/19 07:58:25;;;;;;;3.75;1.30;;;19.60;63.70;;;;;;5095652;28;20044;-64
2023/07/19 08:00:52;;;;;;;3.97;1.50;;;19.60;64.00;;;;;;5076880;28;20050;-64
2023/07/19 08:03:19;;;;;;;3.70;1.30;;;19.60;64.20;;;;;;5095440;28;20100;-65
2023/07/19 08:05:44;;;;;;;2.38;1.15;;;19.70;64.50;;;;;;5095586;28;20040;-65
2023/07/19 08:08:10;;;;;;;3.38;1.33;;;19.70;64.50;;;;;;5095122;28;20036;-65
2023/07/19 08:10:38;;;;;;;3.13;1.15;;;19.70;64.10;;;;;;5077347;28;20066;-65
2023/07/19 08:13:04;;;;;;;3.97;1.50;;;19.80;63.90;;;;;;5077119;28;20050;-65
2023/07/19 08:15:30;;;;;;;3.85;1.17;;;19.80;63.90;;;;;;5095382;28;20031;-65
2023/07/19 08:17:55;;;;;;;5.47;1.10;;;19.90;63.60;;;;;;5077088;28;20090;-65
2023/07/19 08:20:21;;;;;;;2.58;1.17;;;19.90;62.90;;;;;;5076933;28;20048;-65
2023/07/19 08:22:47;;;;;;;2.70;1.02;;;20.00;62.40;;;;;;5076970;28;20097;-65
2023/07/19 08:25:16;;;;;;;2.97;1.50;;;20.10;61.90;;;;;;5077130;28;20079;-65
2023/07/19 08:27:44;;;;;;;3.45;1.67;;;20.10;61.80;;;;;;5076337;28;20044;-63
2023/07/19 08:30:16;;;;;;;3.70;1.13;;;20.20;61.80;;;;;;5077017;28;20052;-64
2023/07/19 08:32:46;;;;;;;4.00;1.20;;;20.30;61.80;;;;;;5076846;28;20472;-65
2023/07/19 08:35:15;;;;;;;5.57;1.30;;;20.40;61.70;;;;;;5076738;28;20058;-65
2023/07/19 08:37:44;;;;;;;2.78;1.10;;;20.50;62.00;;;;;;5094662;28;20173;-65
2023/07/19 08:40:14;;;;;;;3.45;1.10;;;20.60;62.00;;;;;;5076668;28;20052;-65
2023/07/19 08:42:41;;;;;;;4.03;1.40;;;20.70;62.00;;;;;;5076722;28;20040;-65
2023/07/19 08:45:08;;;;;;;4.22;1.50;;;20.90;61.60;;;;;;5076168;28;20051;-64
2023/07/19 08:47:37;;;;;;;4.35;1.20;;;21.10;60.80;;;;;;5076392;28;20456;-65
2023/07/19 08:50:07;;;;;;;5.00;1.25;;;21.20;59.80;;;;;;5076512;28;20044;-65
2023/07/19 08:52:33;;;;;;;2.70;1.45;;;21.40;59.50;;;;;;5094473;28;20111;-65
2023/07/19 08:55:03;;;;;;;3.92;1.73;;;21.50;59.20;;;;;;5076018;28;20116;-65
2023/07/19 08:57:29;;;;;;;2.58;1.10;;;21.60;59.10;;;;;;5094482;28;20127;-65
2023/07/19 08:59:55;;;;;;;2.88;1.15;;;21.80;58.80;;;;;;5076277;28;20372;-65
2023/07/19 09:02:21;;;;;;;4.68;1.35;;;21.90;58.40;;;;;;5075934;28;20040;-65
2023/07/19 09:05:06;;;;;;;3.40;1.35;;;21.90;58.20;;;;;;5093965;28;20040;-65
2023/07/19 09:07:33;;;;;;;2.10;0.95;;;22.10;58.00;;;;;;5076081;28;20079;-65
2023/07/19 09:09:59;;;;;;;3.10;1.17;;;22.10;57.70;;;;;;5076091;28;20051;-65
2023/07/19 09:12:25;;;;;;;3.05;1.02;;;22.20;57.70;;;;;;5093878;28;20050;-65
2023/07/19 09:14:51;;;;;;;4.15;1.13;;;22.30;57.50;;;;;;5076054;28;20127;-65
2023/07/19 09:17:19;;;;;;;3.47;1.02;;;22.40;57.10;;;;;;5075955;28;20098;-65
2023/07/19 09:19:46;;;;;;;2.25;1.55;;;22.50;57.00;;;;;;5075676;28;20490;-65
2023/07/19 09:22:15;;;;;;;3.22;0.90;;;22.60;56.90;;;;;;5075275;28;20483;-65
2023/07/19 09:24:54;;;;;;;3.55;1.00;;;22.60;56.60;;;;;;5094091;28;20038;-65
2023/07/19 09:27:25;;;;;;;1.50;0.75;;;22.70;56.60;;;;;;5075958;28;20540;-65
2023/07/19 09:29:50;;;;;;;2.78;1.10;;;22.80;56.20;;;;;;5093618;28;20048;-65
2023/07/19 09:32:16;;;;;;;2.30;0.85;;;22.90;56.10;;;;;;5062235;28;20123;-65
2023/07/19 09:34:42;;;;;;;1.52;0.73;;;23.00;55.90;;;;;;5059135;28;20395;-65
2023/07/19 09:37:07;;;;;;;2.35;1.10;;;23.00;55.40;;;;;;5093862;28;20111;-65
2023/07/19 09:39:37;;;;;;;3.13;0.90;;;23.10;55.30;;;;;;5093524;28;20040;-65
2023/07/19 09:42:03;;;;;;;2.92;0.90;;;23.10;55.40;;;;;;5075379;28;20602;-65
2023/07/19 09:44:30;;;;;;;3.17;1.00;;;23.20;55.30;;;;;;5093853;28;20044;-65
2023/07/19 09:46:57;;;;;;;2.53;0.80;;;23.30;55.20;;;;;;5093545;28;20047;-65
2023/07/19 09:49:23;;;;;;;3.05;0.93;;;23.30;55.10;;;;;;5075480;28;20044;-65
2023/07/19 09:51:51;;;;;;;3.50;1.10;;;23.40;54.80;;;;;;5093107;28;20089;-65
2023/07/19 09:54:16;;;;;;;2.20;1.17;;;23.50;54.40;;;;;;5058940;28;20115;-65
2023/07/19 09:56:43;;;;;;;2.33;0.75;;;23.50;54.10;;;;;;5074881;28;20146;-65
2023/07/19 09:59:12;;;;;;;2.35;1.05;;;23.60;54.30;;;;;;5075096;28;20047;-65
2023/07/19 10:01:39;;;;;;;3.75;1.00;;;23.70;54.40;;;;;;5062590;28;20035;-65
2023/07/19 10:04:22;;;;;;;3.13;1.10;;;23.70;54.00;;;;;;5075221;28;20044;-66
2023/07/19 10:06:48;;;;;;;3.35;1.23;;;23.80;53.90;;;;;;5074724;28;20040;-66
2023/07/19 10:09:23;;;;;;;3.35;1.38;;;23.80;53.60;;;;;;5074741;28;20128;-65
2023/07/19 10:11:52;;;;;;;2.85;1.10;;;23.80;53.40;;;;;;5075037;28;20044;-65
2023/07/19 10:14:28;;;;;;;3.92;0.93;;;23.80;52.90;;;;;;5052359;28;20052;-66
2023/07/19 10:17:01;;;;;;;2.83;0.82;;;23.70;52.50;;;;;;5064120;28;20035;-65
2023/07/19 10:19:27;;;;;;;3.85;0.80;;;23.70;51.90;;;;;;5092518;28;20585;-66
2023/07/19 10:22:04;;;;;;;1.55;0.88;;;23.60;51.90;;;;;;5092876;28;20059;-66
2023/07/19 10:24:32;;;;;;;3.55;1.67;;;23.50;52.00;;;;;;5074801;28;20040;-65
2023/07/19 10:27:08;;;;;;;3.97;1.33;;;23.50;52.40;;;;;;5092890;28;20145;-66
2023/07/19 10:30:03;;;;;;;4.22;1.30;;;23.40;53.30;;;;;;5074799;28;20047;-65
2023/07/19 10:32:29;;;;;;;5.22;1.40;;;23.30;54.00;;;;;;5092480;28;20047;-65
2023/07/19 10:34:55;;;;;;;2.45;0.95;;;23.10;54.60;;;;;;5074796;28;20044;-66
2023/07/19 10:37:21;;;;;;;3.17;1.25;;;23.10;55.30;;;;;;5074735;28;20119;-65
2023/07/19 10:39:47;;;;;;;2.08;1.38;;;23.00;55.70;;;;;;5092614;28;20044;-65
2023/07/19 10:42:12;;;;;;;2.90;1.10;;;23.00;56.40;;;;;;5074647;28;20054;-65
2023/07/19 10:44:38;;;;;;;2.33;1.00;;;22.90;57.00;;;;;;5092243;28;20039;-65
2023/07/19 10:47:04;;;;;;;3.45;1.42;;;22.90;57.30;;;;;;5074589;28;20036;-65
2023/07/19 10:49:30;;;;;;;4.60;1.85;;;22.80;58.00;;;;;;5092668;28;20040;-65
2023/07/19 10:51:57;;;;;;;3.00;1.30;;;22.80;58.50;;;;;;5074367;28;20040;-65
2023/07/19 10:54:23;;;;;;;2.15;1.20;;;22.80;59.20;;;;;;5092451;28;20043;-65
2023/07/19 10:56:53;;;;;;;4.03;1.40;;;22.80;59.20;;;;;;5074569;28;20048;-65
2023/07/19 10:59:20;;;;;;;4.22;1.40;;;22.70;58.90;;;;;;5072438;28;20058;-65
2023/07/19 11:01:49;;;;;;;4.60;2.03;;;22.70;59.30;;;;;;5073595;28;20036;-65
2023/07/19 11:04:18;;;;;;;3.70;1.63;;;22.70;59.10;;;;;;5092233;28;20429;-65
2023/07/19 11:06:59;;;;;;;3.15;1.70;;;22.70;58.90;;;;;;5092214;28;20040;-64
2023/07/19 11:09:25;;;;;;;3.53;1.90;;;22.70;58.80;;;;;;5072312;28;20491;-64
2023/07/19 11:11:52;;;;;;;3.97;2.13;;;22.60;58.90;;;;;;5071220;28;20048;-64
2023/07/19 11:14:28;;;;;;;4.43;2.22;;;22.60;59.30;;;;;;5092503;28;20044;-65
2023/07/19 11:16:56;;;;;;;5.07;2.35;;;22.50;59.30;;;;;;5074082;28;20047;-64
2023/07/19 11:19:39;;;;;;;5.57;2.83;;;22.50;59.30;;;;;;5091900;28;20083;-65
2023/07/19 11:22:06;;;;;;;4.53;2.88;;;22.50;59.50;;;;;;5092274;28;20364;-65
2023/07/19 11:24:40;;;;;;;4.38;2.50;;;22.30;59.50;;;;;;5074528;28;20458;-66
2023/07/19 11:27:07;;;;;;;;;;;22.30;59.50;;;;;;5074707;28;20047;-65
2023/07/19 11:29:33;;;;;;;4.15;2.30;;;22.20;59.00;;;;;;5094773;28;19985;-65
2023/07/19 11:32:23;;;;;;;4.50;2.22;;;22.20;59.50;;;;;;5077727;28;20044;-65
2023/07/19 11:34:51;;;;;;;4.20;2.20;;;22.10;59.80;;;;;;5096302;28;20043;-65
2023/07/19 11:37:23;;;;;;;4.60;2.08;;;22.10;60.40;;;;;;5096039;28;20047;-65
2023/07/19 11:39:50;;;;;;;3.88;1.77;;;22.00;60.40;;;;;;5077512;28;20488;-65
2023/07/19 11:42:39;;;;;;;3.17;1.60;;;22.00;60.30;;;;;;5077952;28;20097;-65
2023/07/19 11:45:15;;;;;;;3.05;1.33;;;22.00;60.20;;;;;;5077700;28;20115;-64
2023/07/19 11:47:42;;;;;;;1.95;1.13;;;21.90;60.20;;;;;;5095846;28;20047;-64
2023/07/19 11:50:09;;;;;;;4.03;2.00;;;21.90;60.90;;;;;;5096018;28;20040;-63
2023/07/19 11:52:51;;;;;;;3.30;1.40;;;21.80;61.60;;;;;;5095761;28;20044;-64
2023/07/19 11:55:19;;;;;;;3.58;1.60;;;21.90;62.00;;;;;;5095606;28;20360;-65
2023/07/19 11:57:48;;;;;;;3.53;1.70;;;21.90;62.60;;;;;;5077503;28;20664;-64
2023/07/19 12:00:15;;;;;;;3.78;2.20;;;21.90;62.40;;;;;;5095685;28;20051;-64
2023/07/19 12:02:45;;;;;;;4.25;2.28;;;21.90;62.50;;;;;;5095594;28;20036;-64
2023/07/19 12:05:13;;;;;;;4.28;2.85;;;21.90;62.00;;;;;;5077368;28;20382;-64
2023/07/19 12:07:39;;;;;;;4.40;2.22;;;21.90;62.50;;;;;;5095454;28;20503;-65
2023/07/19 12:10:05;;;;;;;3.90;2.50;;;21.90;62.50;;;;;;5095318;28;20044;-65
2023/07/19 12:12:31;;;;;;;4.65;2.20;;;21.90;62.30;;;;;;5094928;28;20121;-65
2023/07/19 12:15:00;;;;;;;4.15;2.40;;;21.90;62.40;;;;;;5095251;28;20040;-64
2023/07/19 12:17:25;;;;;;;4.45;2.38;;;21.90;62.80;;;;;;5077274;28;20047;-65
2023/07/19 12:19:52;;;;;;;4.10;2.60;;;21.90;62.90;;;;;;5094902;28;20060;-65
2023/07/19 12:22:18;;;;;;;6.30;3.80;;;21.90;62.70;;;;;;5095006;28;20122;-65
2023/07/19 12:24:44;;;;;;;4.20;2.67;;;21.90;62.40;;;;;;5095050;28;20119;-65
2023/07/19 12:27:10;;;;;;;4.88;1.90;;;21.90;62.40;;;;;;5077273;28;20058;-65
2023/07/19 12:29:35;;;;;;;4.53;2.55;;;21.90;62.30;;;;;;5077047;28;20343;-64
2023/07/19 12:32:03;;;;;;;5.18;2.65;;;21.90;63.10;;;;;;5076784;28;20054;-64
2023/07/19 12:34:29;;;;;;;4.90;2.42;;;21.90;63.60;;;;;;5095066;28;20052;-64
2023/07/19 12:36:55;;;;;;;6.82;2.83;;;21.90;63.20;;;;;;5060274;28;20130;-64
2023/07/19 12:39:26;;;;;;;3.72;1.98;;;22.00;62.80;;;;;;5094778;28;20040;-64
2023/07/19 12:41:52;;;;;;;4.53;2.70;;;22.00;62.70;;;;;;5093814;28;20036;-64
2023/07/19 12:44:24;;;;;;;2.88;1.80;;;22.00;62.40;;;;;;5076630;28;20119;-64
2023/07/19 12:46:50;;;;;;;4.53;2.22;;;22.00;61.90;;;;;;5094788;28;20036;-64